Time;durP1;ratioP1;P1;durP2;ratioP2;P2;SDS_P1;SDS_P2;PMS_P1;PMS_P2;Temp;Humidity;BMP_temperature;BMP_pressure;BME280_temperature;BME280_humidity;BME280_pressure;Samples;Min_cycle;Max_cycle;Signal;HPM_P1;HPM_P2
2023/10/27 00:00:39;;;;;;;;;;;;;;;12.22;100.00;98806.00;4995436;28;823;-61
2023/10/27 00:03:05;;;;;;;;;;;;;;;12.22;100.00;98809.56;4995248;28;800;-61
2023/10/27 00:05:32;;;;;;;;;;;;;;;12.11;100.00;98800.00;4995262;28;864;-61
2023/10/27 00:07:58;;;;;;;;;;;;;;;12.02;100.00;98800.63;4995131;28;847;-61
2023/10/27 00:10:25;;;;;;;;;;;;;;;11.97;100.00;98795.59;4995073;28;870;-62
2023/10/27 00:12:52;;;;;;;;;;;;;;;11.89;100.00;98797.81;4995068;28;835;-61
2023/10/27 00:15:18;;;;;;;;;;;;;;;11.82;100.00;98795.97;4995314;28;815;-61
2023/10/27 00:17:45;;;;;;;;;;;;;;;11.75;100.00;98800.91;4977407;28;1941;-61
2023/10/27 00:20:13;;;;;;;;;;;;;;;11.69;100.00;98794.34;4995113;28;851;-62
2023/10/27 00:22:39;;;;;;;;;;;;;;;11.68;100.00;98801.09;4994886;28;1225;-61
2023/10/27 00:25:07;;;;;;;;;;;;;;;11.64;100.00;98795.66;4994995;28;810;-61
2023/10/27 00:27:34;;;;;;;;;;;;;;;11.65;100.00;98797.22;4994791;28;898;-62
2023/10/27 00:30:01;;;;;;;;;;;;;;;11.68;100.00;98793.56;4994764;28;831;-61
2023/10/27 00:32:28;;;;;;;;;;;;;;;11.78;100.00;98797.28;4994769;28;814;-61
2023/10/27 00:34:55;;;;;;;;;;;;;;;11.84;100.00;98795.53;4994714;28;935;-61
2023/10/27 00:37:22;;;;;;;;;;;;;;;11.87;100.00;98796.66;4994549;28;1910;-61
2023/10/27 00:39:47;;;;;;;;;;;;;;;11.75;100.00;98795.38;4994633;28;862;-61
2023/10/27 00:42:15;;;;;;;;;;;;;;;11.68;100.00;98795.56;4994622;28;866;-61
2023/10/27 00:44:41;;;;;;;;;;;;;;;11.64;100.00;98801.19;4994542;28;870;-61
2023/10/27 00:47:08;;;;;;;;;;;;;;;11.38;100.00;98765.06;4994608;28;908;-59
2023/10/27 00:49:35;;;;;;;;;;;;;;;11.56;100.00;98795.03;4994593;28;862;-59
2023/10/27 00:52:02;;;;;;;;;;;;;;;11.56;100.00;98792.25;4977046;28;1304;-61
2023/10/27 00:54:29;;;;;;;;;;;;;;;11.46;100.00;98787.78;4994696;28;898;-61
2023/10/27 00:56:57;;;;;;;;;;;;;;;11.49;100.00;98786.91;4976879;28;1475;-61
2023/10/27 00:59:24;;;;;;;;;;;;;;;11.50;100.00;98796.00;4994182;28;1945;-61
2023/10/27 01:01:50;;;;;;;;;;;;;;;11.42;100.00;98781.56;4994187;28;871;-61
2023/10/27 01:04:17;;;;;;;;;;;;;;;11.34;100.00;98780.97;4994192;28;879;-61
2023/10/27 01:06:44;;;;;;;;;;;;;;;11.33;100.00;98779.41;4993387;28;877;-61
2023/10/27 01:09:11;;;;;;;;;;;;;;;11.37;100.00;98784.84;4994132;28;856;-61
2023/10/27 01:11:40;;;;;;;;;;;;;;;11.44;100.00;98773.63;4994124;28;862;-61
2023/10/27 01:14:06;;;;;;;;;;;;;;;11.48;100.00;98762.44;4993927;28;954;-61
2023/10/27 01:16:33;;;;;;;;;;;;;;;11.49;100.00;98764.78;4993911;28;827;-61
2023/10/27 01:19:00;;;;;;;;;;;;;;;11.39;100.00;98765.81;4993811;28;1962;-61
2023/10/27 01:21:28;;;;;;;;;;;;;;;11.33;100.00;98759.25;4993752;28;1007;-61
2023/10/27 01:23:55;;;;;;;;;;;;;;;11.28;100.00;98754.25;4993634;28;1202;-61
2023/10/27 01:26:22;;;;;;;;;;;;;;;11.26;100.00;98754.69;4993776;28;866;-61
2023/10/27 01:28:49;;;;;;;;;;;;;;;11.28;100.00;98770.84;4993700;28;866;-61
2023/10/27 01:31:16;;;;;;;;;;;;;;;11.26;100.00;98768.50;4993692;28;857;-61
2023/10/27 01:33:43;;;;;;;;;;;;;;;11.20;100.00;98762.72;4993608;28;792;-61
2023/10/27 01:36:10;;;;;;;;;;;;;;;11.18;100.00;98767.13;4993463;28;948;-61
2023/10/27 01:38:36;;;;;;;;;;;;;;;11.21;100.00;98769.03;4993352;28;1975;-61
2023/10/27 01:41:02;;;;;;;;;;;;;;;11.21;100.00;98764.28;4993463;28;870;-61
2023/10/27 01:43:30;;;;;;;;;;;;;;;11.14;100.00;98764.47;4993423;28;869;-61
2023/10/27 01:45:56;;;;;;;;;;;;;;;11.07;100.00;98769.38;4993369;28;827;-61
2023/10/27 01:48:23;;;;;;;;;;;;;;;11.08;100.00;98768.16;4993383;28;796;-61
2023/10/27 01:50:49;;;;;;;;;;;;;;;11.15;100.00;98760.47;4993498;28;862;-61
2023/10/27 01:53:16;;;;;;;;;;;;;;;11.28;100.00;98759.78;4993336;28;935;-61
2023/10/27 01:55:42;;;;;;;;;;;;;;;11.33;100.00;98762.81;4993476;28;827;-61
2023/10/27 01:58:09;;;;;;;;;;;;;;;11.37;100.00;98755.22;4993233;28;1957;-61
2023/10/27 02:00:36;;;;;;;;;;;;;;;11.31;100.00;98759.72;4993166;28;859;-61
2023/10/27 02:03:02;;;;;;;;;;;;;;;11.31;100.00;98768.00;4993028;28;1167;-61
2023/10/27 02:05:29;;;;;;;;;;;;;;;11.31;100.00;98762.47;4992977;28;827;-61
2023/10/27 02:07:58;;;;;;;;;;;;;;;11.26;100.00;98759.44;4975556;28;954;-61
2023/10/27 02:10:25;;;;;;;;;;;;;;;11.23;100.00;98775.69;4993092;28;866;-61
2023/10/27 02:12:51;;;;;;;;;;;;;;;11.39;100.00;98779.66;4993302;28;1198;-61
2023/10/27 02:15:18;;;;;;;;;;;;;;;11.55;100.00;98776.88;4992904;28;1191;-61
2023/10/27 02:17:44;;;;;;;;;;;;;;;11.73;100.00;98781.97;4992063;28;1882;-61
2023/10/27 02:20:11;;;;;;;;;;;;;;;11.84;100.00;98792.75;4992764;28;906;-62
2023/10/27 02:22:38;;;;;;;;;;;;;;;11.85;100.00;98794.31;4992766;28;1343;-61
2023/10/27 02:25:05;;;;;;;;;;;;;;;11.86;100.00;98806.94;4992695;28;818;-61
2023/10/27 02:27:38;;;;;;;;;;;;;;;11.83;100.00;98819.66;4992950;28;819;-61
2023/10/27 02:30:06;;;;;;;;;;;;;;;11.81;100.00;98815.78;4992709;28;1007;-61
2023/10/27 02:32:32;;;;;;;;;;;;;;;11.82;100.00;98809.00;4975260;28;1242;-61
2023/10/27 02:34:59;;;;;;;;;;;;;;;11.84;100.00;98803.81;4992600;28;838;-61
2023/10/27 02:37:26;;;;;;;;;;;;;;;11.84;100.00;98804.63;4992532;28;1969;-61
2023/10/27 02:39:52;;;;;;;;;;;;;;;11.79;100.00;98813.44;4992608;28;849;-61
2023/10/27 02:42:19;;;;;;;;;;;;;;;11.73;100.00;98811.63;4992537;28;871;-61
2023/10/27 02:44:46;;;;;;;;;;;;;;;11.68;100.00;98820.47;4992553;28;909;-61
2023/10/27 02:47:12;;;;;;;;;;;;;;;11.64;100.00;98820.56;4992486;28;784;-61
2023/10/27 02:49:39;;;;;;;;;;;;;;;11.63;100.00;98816.25;4992520;28;803;-61
2023/10/27 02:52:06;;;;;;;;;;;;;;;11.59;100.00;98821.84;4992652;28;906;-61
2023/10/27 02:54:32;;;;;;;;;;;;;;;11.61;100.00;98818.66;4992725;28;791;-61
2023/10/27 02:56:59;;;;;;;;;;;;;;;11.63;100.00;98830.09;4992381;28;827;-61
2023/10/27 02:59:26;;;;;;;;;;;;;;;11.64;100.00;98837.94;4992440;28;1957;-62
2023/10/27 03:01:54;;;;;;;;;;;;;;;11.65;100.00;98833.19;4992595;28;862;-61
2023/10/27 03:04:21;;;;;;;;;;;;;;;11.93;100.00;98826.19;4992276;28;820;-61
2023/10/27 03:06:48;;;;;;;;;;;;;;;12.17;100.00;98821.19;4992345;28;804;-61
2023/10/27 03:09:14;;;;;;;;;;;;;;;12.21;100.00;98819.09;4992408;28;807;-61
2023/10/27 03:11:40;;;;;;;;;;;;;;;12.32;100.00;98820.81;4992372;28;811;-61
2023/10/27 03:14:06;;;;;;;;;;;;;;;12.53;100.00;98819.44;4992478;28;1183;-61
2023/10/27 03:16:34;;;;;;;;;;;;;;;12.73;100.00;98817.25;4992313;28;1250;-61
2023/10/27 03:19:01;;;;;;;;;;;;;;;12.88;100.00;98820.38;4992363;28;1902;-61
2023/10/27 03:21:28;;;;;;;;;;;;;;;12.99;100.00;98822.81;4992593;28;1019;-61
2023/10/27 03:23:57;;;;;;;;;;;;;;;13.11;100.00;98827.59;4992210;28;1198;-62
2023/10/27 03:26:24;;;;;;;;;;;;;;;13.16;100.00;98827.03;4992297;28;807;-61
2023/10/27 03:28:51;;;;;;;;;;;;;;;13.19;100.00;98831.72;4992485;28;882;-61
2023/10/27 03:31:17;;;;;;;;;;;;;;;13.02;100.00;98833.81;4995895;28;850;-61
2023/10/27 03:33:44;;;;;;;;;;;;;;;12.83;100.00;98830.00;4995867;28;862;-61
2023/10/27 03:36:11;;;;;;;;;;;;;;;12.75;100.00;98825.13;4995914;28;832;-61
2023/10/27 03:38:38;;;;;;;;;;;;;;;12.69;100.00;98827.66;4996200;28;1976;-61
2023/10/27 03:41:04;;;;;;;;;;;;;;;12.66;100.00;98825.78;4995864;28;851;-61
2023/10/27 03:43:34;;;;;;;;;;;;;;;12.63;100.00;98818.31;4995812;28;885;-61
2023/10/27 03:46:01;;;;;;;;;;;;;;;12.57;100.00;98809.78;4995842;28;829;-61
2023/10/27 03:48:28;;;;;;;;;;;;;;;12.64;100.00;98804.03;4995565;28;891;-61
2023/10/27 03:50:57;;;;;;;;;;;;;;;12.66;100.00;98804.38;4995828;28;863;-61
2023/10/27 03:53:24;;;;;;;;;;;;;;;12.69;100.00;98811.00;4995492;28;859;-61
2023/10/27 03:55:53;;;;;;;;;;;;;;;12.75;100.00;98802.94;4995491;28;834;-61
2023/10/27 03:58:20;;;;;;;;;;;;;;;12.72;100.00;98803.84;4995368;28;1890;-59
2023/10/27 04:00:46;;;;;;;;;;;;;;;12.58;100.00;98805.00;4977850;28;1205;-59
2023/10/27 04:03:13;;;;;;;;;;;;;;;12.51;100.00;98796.91;4995211;28;807;-59
2023/10/27 04:05:40;;;;;;;;;;;;;;;12.45;100.00;98796.66;4977868;28;1280;-59
2023/10/27 04:08:06;;;;;;;;;;;;;;;12.48;100.00;98795.78;4995197;28;902;-59
2023/10/27 04:10:36;;;;;;;;;;;;;;;12.50;100.00;98789.81;4995122;28;862;-59
2023/10/27 04:13:03;;;;;;;;;;;;;;;12.40;100.00;98789.69;4995154;28;855;-59
2023/10/27 04:15:31;;;;;;;;;;;;;;;12.35;100.00;98781.88;4995105;28;870;-59
2023/10/27 04:17:58;;;;;;;;;;;;;;;12.28;100.00;98779.34;4994970;28;1895;-59
2023/10/27 04:20:25;;;;;;;;;;;;;;;12.19;100.00;98782.75;4994917;28;878;-59
2023/10/27 04:22:51;;;;;;;;;;;;;;;12.12;100.00;98784.91;4994878;28;1261;-59
2023/10/27 04:25:18;;;;;;;;;;;;;;;12.04;100.00;98776.81;4994865;28;879;-59
2023/10/27 04:27:44;;;;;;;;;;;;;;;12.01;100.00;98774.13;4995067;28;886;-59
2023/10/27 04:30:11;;;;;;;;;;;;;;;12.02;100.00;98773.72;4994846;28;831;-59
2023/10/27 04:32:38;;;;;;;;;;;;;;;12.05;100.00;98774.81;4994611;28;1005;-59
2023/10/27 04:35:05;;;;;;;;;;;;;;;12.06;100.00;98787.47;4994737;28;850;-59
2023/10/27 04:37:32;;;;;;;;;;;;;;;12.09;100.00;98777.50;4994489;28;1910;-59
2023/10/27 04:39:59;;;;;;;;;;;;;;;12.13;100.00;98775.41;4994440;28;825;-59
2023/10/27 04:42:26;;;;;;;;;;;;;;;12.24;100.00;98776.66;4976306;28;1292;-59
2023/10/27 04:44:52;;;;;;;;;;;;;;;12.40;100.00;98781.38;4994560;28;863;-59
2023/10/27 04:47:21;;;;;;;;;;;;;;;12.58;100.00;98774.53;4994513;28;855;-59
2023/10/27 04:49:48;;;;;;;;;;;;;;;12.65;100.00;98779.84;4994398;28;839;-59
2023/10/27 04:52:14;;;;;;;;;;;;;;;12.74;100.00;98788.31;4994367;28;784;-59
2023/10/27 04:54:41;;;;;;;;;;;;;;;12.80;100.00;98791.28;4994531;28;819;-59
2023/10/27 04:57:07;;;;;;;;;;;;;;;12.91;100.00;98794.53;4994335;28;800;-59
2023/10/27 04:59:34;;;;;;;;;;;;;;;13.00;100.00;98793.88;4994138;28;1944;-59
2023/10/27 05:02:01;;;;;;;;;;;;;;;13.06;100.00;98797.66;4994048;28;815;-62
2023/10/27 05:04:27;;;;;;;;;;;;;;;13.11;100.00;98799.84;4994182;28;815;-62
2023/10/27 05:06:54;;;;;;;;;;;;;;;13.16;100.00;98806.84;4994112;28;808;-62
2023/10/27 05:09:21;;;;;;;;;;;;;;;13.20;100.00;98813.84;4994170;28;795;-62
2023/10/27 05:11:49;;;;;;;;;;;;;;;13.27;100.00;98804.50;4993948;28;895;-62
2023/10/27 05:14:15;;;;;;;;;;;;;;;13.35;100.00;98796.75;4994151;28;820;-61
2023/10/27 05:16:42;;;;;;;;;;;;;;;13.52;100.00;98792.63;4993939;28;886;-62
2023/10/27 05:19:08;;;;;;;;;;;;;;;13.65;100.00;98790.59;4993997;28;1882;-62
2023/10/27 05:21:34;;;;;;;;;;;;;;;13.71;100.00;98790.03;4994037;28;1025;-62
2023/10/27 05:24:01;;;;;;;;;;;;;;;13.80;100.00;98787.34;4993635;28;1273;-61
2023/10/27 05:26:28;;;;;;;;;;;;;;;13.92;100.00;98788.53;4976214;28;1212;-61
2023/10/27 05:28:55;;;;;;;;;;;;;;;14.01;100.00;98800.47;4993644;28;820;-62
2023/10/27 05:31:23;;;;;;;;;;;;;;;14.11;100.00;98798.56;4993600;28;808;-62
2023/10/27 05:33:49;;;;;;;;;;;;;;;14.20;100.00;98795.09;4976049;28;1213;-62
2023/10/27 05:36:16;;;;;;;;;;;;;;;14.33;100.00;98809.69;4993597;28;850;-59
2023/10/27 05:38:43;;;;;;;;;;;;;;;14.42;100.00;98800.63;4993428;28;1907;-59
2023/10/27 05:41:10;;;;;;;;;;;;;;;14.52;100.00;98793.16;4993425;28;961;-59
2023/10/27 05:43:36;;;;;;;;;;;;;;;14.64;100.00;98801.44;4976021;28;1296;-59
2023/10/27 05:46:02;;;;;;;;;;;;;;;14.74;100.00;98809.81;4993382;28;856;-59
2023/10/27 05:48:29;;;;;;;;;;;;;;;14.85;100.00;98816.56;4993433;28;847;-59
2023/10/27 05:50:56;;;;;;;;;;;;;;;14.96;100.00;98810.56;4993366;28;884;-60
2023/10/27 05:53:23;;;;;;;;;;;;;;;15.07;100.00;98810.16;4993198;28;859;-59
2023/10/27 05:55:50;;;;;;;;;;;;;;;15.20;100.00;98807.28;4993182;28;862;-60
2023/10/27 05:58:17;;;;;;;;;;;;;;;15.31;100.00;98802.81;4993212;28;1906;-59
2023/10/27 06:00:44;;;;;;;;;;;;;;;15.39;100.00;98808.09;4993076;28;901;-59
2023/10/27 06:03:11;;;;;;;;;;;;;;;15.47;100.00;98806.59;4993464;28;803;-59
2023/10/27 06:05:38;;;;;;;;;;;;;;;15.52;100.00;98800.41;4993165;28;815;-59
2023/10/27 06:08:04;;;;;;;;;;;;;;;15.66;100.00;98799.81;4993243;28;827;-59
2023/10/27 06:10:31;;;;;;;;;;;;;;;15.80;100.00;98792.13;4993257;28;893;-59
2023/10/27 06:12:56;;;;;;;;;;;;;;;15.89;100.00;98803.28;4993475;28;1291;-59
2023/10/27 06:15:23;;;;;;;;;;;;;;;16.05;100.00;98800.19;4992806;28;907;-59
2023/10/27 06:17:50;;;;;;;;;;;;;;;16.24;100.00;98805.78;4992713;28;1879;-59
2023/10/27 06:20:16;;;;;;;;;;;;;;;16.43;100.00;98800.94;4992728;28;867;-59
2023/10/27 06:22:43;;;;;;;;;;;;;;;16.57;100.00;98805.09;4992539;28;1197;-59
2023/10/27 06:25:10;;;;;;;;;;;;;;;16.67;100.00;98809.44;4992678;28;838;-59
2023/10/27 06:27:39;;;;;;;;;;;;;;;16.75;100.00;98807.88;4992688;28;804;-59
2023/10/27 06:30:06;;;;;;;;;;;;;;;16.88;100.00;98793.75;4992946;28;811;-59
2023/10/27 06:32:33;;;;;;;;;;;;;;;17.10;100.00;98793.50;4975378;28;891;-59
2023/10/27 06:35:00;;;;;;;;;;;;;;;17.29;100.00;98794.19;4992590;28;1186;-59
2023/10/27 06:37:27;;;;;;;;;;;;;;;17.47;100.00;98791.28;4992825;28;1914;-59
2023/10/27 06:39:58;;;;;;;;;;;;;;;17.70;100.00;98789.75;4992786;28;1225;-58
2023/10/27 06:42:27;;;;;;;;;;;;;;;17.90;100.00;98786.41;4992480;28;843;-59
2023/10/27 06:44:53;;;;;;;;;;;;;;;18.29;100.00;98794.00;4992581;28;881;-58
2023/10/27 06:47:19;;;;;;;;;;;;;;;18.78;100.00;98803.81;4992410;28;878;-58
2023/10/27 06:49:46;;;;;;;;;;;;;;;19.15;100.00;98797.78;4992510;28;850;-58
2023/10/27 06:52:13;;;;;;;;;;;;;;;19.49;100.00;98792.66;4992380;28;846;-58
2023/10/27 06:54:40;;;;;;;;;;;;;;;19.97;100.00;98797.91;4992465;28;823;-58
2023/10/27 06:57:10;;;;;;;;;;;;;;;20.04;100.00;98796.72;4992330;28;844;-58
2023/10/27 06:59:37;;;;;;;;;;;;;;;19.73;100.00;98798.88;4992206;28;1879;-57
2023/10/27 07:02:04;;;;;;;;;;;;;;;19.47;100.00;98798.75;4992371;28;885;-57
2023/10/27 07:04:30;;;;;;;;;;;;;;;19.28;100.00;98808.66;4993988;28;886;-57
2023/10/27 07:06:56;;;;;;;;;;;;;;;19.26;100.00;98809.16;4996320;28;854;-57
2023/10/27 07:09:23;;;;;;;;;;;;;;;19.32;100.00;98818.41;4996175;28;869;-57
2023/10/27 07:11:50;;;;;;;;;;;;;;;19.32;100.00;98824.00;4996255;28;828;-57
2023/10/27 07:14:17;;;;;;;;;;;;;;;19.41;100.00;98811.91;4996128;28;879;-57
2023/10/27 07:16:43;;;;;;;;;;;;;;;19.80;100.00;98814.53;4996108;28;804;-57
2023/10/27 07:19:11;;;;;;;;;;;;;;;20.36;100.00;98808.81;4995931;28;1945;-58
2023/10/27 07:21:37;;;;;;;;;;;;;;;20.96;100.00;98801.47;4996320;28;918;-57
2023/10/27 07:24:04;;;;;;;;;;;;;;;21.69;100.00;98794.81;4995786;28;1502;-57
2023/10/27 07:26:31;;;;;;;;;;;;;;;22.53;100.00;98797.97;4996109;28;847;-57
2023/10/27 07:38:31;;;;;;;;;;;;;;;23.60;100.00;98785.88;5014716;28;1918;-57
2023/10/27 07:41:17;;;;;;;;;;;;;;;23.66;100.00;98786.59;4990411;28;964;-57
2023/10/27 07:43:43;;;;;;;;;;;;;;;23.59;100.00;98790.72;4993758;28;882;-58
2023/10/27 07:46:10;;;;;;;;;;;;;;;23.32;100.00;98783.09;4993792;28;886;-58
2023/10/27 07:48:37;;;;;;;;;;;;;;;23.10;100.00;98784.69;4993622;28;852;-58
2023/10/27 07:51:04;;;;;;;;;;;;;;;22.96;100.00;98772.38;4977157;28;1267;-58
2023/10/27 07:53:31;;;;;;;;;;;;;;;22.75;100.00;98785.19;4993408;28;952;-58
2023/10/27 07:55:58;;;;;;;;;;;;;;;22.40;100.00;98783.59;4993601;28;920;-57
2023/10/27 07:58:25;;;;;;;;;;;;;;;22.18;100.00;98784.28;4993123;28;1898;-58
2023/10/27 08:00:52;;;;;;;;;;;;;;;22.25;100.00;98788.66;4993333;28;854;-58
2023/10/27 08:03:21;;;;;;;;;;;;;;;22.55;100.00;98784.16;4993248;28;982;-57
2023/10/27 08:05:48;;;;;;;;;;;;;;;22.77;100.00;98786.19;4993150;28;910;-58
2023/10/27 08:08:15;;;;;;;;;;;;;;;22.74;100.00;98787.22;4993122;28;864;-58
2023/10/27 08:10:46;;;;;;;;;;;;;;;22.99;100.00;98776.22;4993261;28;815;-58
2023/10/27 08:13:16;;;;;;;;;;;;;;;23.05;100.00;98774.19;4993004;28;886;-57
2023/10/27 08:15:45;;;;;;;;;;;;;;;23.07;100.00;98776.50;4993166;28;879;-58
2023/10/27 08:18:13;;;;;;;;;;;;;;;23.12;100.00;98768.03;4993441;28;1972;-57
2023/10/27 08:20:40;;;;;;;;;;;;;;;23.11;100.00;98763.69;4995002;28;897;-57
2023/10/27 08:23:07;;;;;;;;;;;;;;;23.14;100.00;98764.69;4994535;28;1263;-57
2023/10/27 08:25:33;;;;;;;;;;;;;;;23.22;100.00;98748.81;4995173;28;792;-57
2023/10/27 08:28:00;;;;;;;;;;;;;;;23.27;100.00;98745.19;4994691;28;839;-57
2023/10/27 08:30:27;;;;;;;;;;;;;;;23.64;100.00;98733.56;4994793;28;800;-57
2023/10/27 08:32:53;;;;;;;;;;;;;;;24.18;100.00;98723.81;4994800;28;824;-57
2023/10/27 08:35:20;;;;;;;;;;;;;;;24.64;100.00;98724.28;4994784;28;835;-57
2023/10/27 08:37:47;;;;;;;;;;;;;;;24.51;100.00;98718.47;4994788;28;1911;-58
2023/10/27 08:40:13;;;;;;;;;;;;;;;24.39;100.00;98709.31;4994796;28;796;-57
2023/10/27 08:42:44;;;;;;;;;;;;;;;24.04;100.00;98708.75;4994952;28;858;-57
2023/10/27 08:45:11;;;;;;;;;;;;;;;23.59;100.00;98699.72;4994791;28;861;-57
2023/10/27 08:47:38;;;;;;;;;;;;;;;23.11;100.00;98693.22;4994632;28;843;-57
2023/10/27 08:50:05;;;;;;;;;;;;;;;22.92;100.00;98687.34;4994375;28;858;-58
2023/10/27 09:21:32;;;;;;;;;;;;;;;23.86;100.00;98652.19;6089848;23;1677;-65
2023/10/27 09:23:59;;;;;;;;;;;;;;;23.82;100.00;98644.75;4954553;28;1118;-65
2023/10/27 09:26:28;;;;;;;;;;;;;;;23.74;100.00;98634.53;4955000;28;937;-68
2023/10/27 09:29:01;;;;;;;;;;;;;;;23.83;100.00;98632.19;4954982;28;889;-65
2023/10/27 09:31:34;;;;;;;;;;;;;;;24.10;100.00;98629.69;4954886;28;862;-65
2023/10/27 09:34:17;;;;;;;;;;;;;;;24.25;100.00;98632.91;4955153;28;895;-67
2023/10/27 09:36:46;;;;;;;;;;;;;;;24.33;100.00;98635.94;4954749;28;948;-68
2023/10/27 09:39:17;;;;;;;;;;;;;;;24.35;100.00;98635.41;4954683;28;1972;-67
2023/10/27 09:41:45;;;;;;;;;;;;;;;24.56;100.00;98633.72;4954763;28;858;-68
2023/10/27 09:44:13;;;;;;;;;;;;;;;24.84;100.00;98627.78;4954723;28;835;-68
2023/10/27 09:46:46;;;;;;;;;;;;;;;25.04;100.00;98620.88;4954611;28;878;-69
2023/10/27 09:49:12;;;;;;;;;;;;;;;25.04;100.00;98618.03;4969388;28;1277;-68
2023/10/27 09:51:40;;;;;;;;;;;;;;;25.10;100.00;98620.81;4954708;28;878;-69
2023/10/27 09:54:08;;;;;;;;;;;;;;;24.88;100.00;98610.53;4954511;28;819;-69
2023/10/27 09:56:35;;;;;;;;;;;;;;;24.82;100.00;98615.50;4954559;28;850;-68
2023/10/27 09:59:02;;;;;;;;;;;;;;;24.77;100.00;98624.78;4954341;28;1886;-68
2023/10/27 10:01:29;;;;;;;;;;;;;;;24.79;100.00;98610.88;4954409;28;917;-71
2023/10/27 10:03:56;;;;;;;;;;;;;;;24.78;100.00;98598.81;4954416;28;832;-69
2023/10/27 10:06:26;;;;;;;;;;;;;;;24.78;100.00;98598.06;4954417;28;902;-69
2023/10/27 10:09:19;;;;;;;;;;;;;;;24.98;100.00;98599.63;4954281;28;917;-71
2023/10/27 10:11:49;;;;;;;;;;;;;;;25.34;100.00;98596.66;4954283;28;874;-69
2023/10/27 10:14:34;;;;;;;;;;;;;;;25.56;100.00;98587.09;4952987;29;1438;-70
2023/10/27 10:17:01;;;;;;;;;;;;;;;25.72;100.00;98588.94;4954069;29;899;-70
2023/10/27 10:19:46;;;;;;;;;;;;;;;26.05;100.00;98584.06;4954105;28;1953;-71
2023/10/27 10:22:33;;;;;;;;;;;;;;;26.05;100.00;98584.06;4959271;28;1344;-72
2023/10/27 10:25:18;;;;;;;;;;;;;;;25.61;100.00;98574.94;4955810;28;1511;-71
2023/10/27 10:28:03;;;;;;;;;;;;;;;25.30;100.00;98567.91;4973381;28;839;-71
2023/10/27 10:30:30;;;;;;;;;;;;;;;25.02;100.00;98560.53;4973481;28;859;-71
2023/10/27 10:33:30;;;;;;;;;;;;;;;24.97;100.00;98550.81;4973403;28;823;-71
2023/10/27 10:36:25;;;;;;;;;;;;;;;25.08;100.00;98561.22;4951154;28;1418;-71
2023/10/27 10:38:52;;;;;;;;;;;;;;;25.01;100.00;98550.53;4972370;28;1894;-71
2023/10/27 10:41:19;;;;;;;;;;;;;;;25.09;100.00;98550.69;4973156;28;851;-71
2023/10/27 10:44:06;;;;;;;;;;;;;;;25.26;100.00;98539.94;4973139;28;862;-71
2023/10/27 10:46:32;;;;;;;;;;;;;;;25.65;100.00;98541.47;4973039;28;1158;-71
2023/10/27 10:48:59;;;;;;;;;;;;;;;25.70;100.00;98537.75;4973150;28;857;-70
2023/10/27 10:51:30;;;;;;;;;;;;;;;25.82;100.00;98539.13;4972991;28;819;-72
2023/10/27 10:53:57;;;;;;;;;;;;;;;25.72;100.00;98526.69;4973544;28;879;-71
2023/10/27 10:56:24;;;;;;;;;;;;;;;25.76;99.34;98535.63;4973332;28;875;-70
2023/10/27 10:58:51;;;;;;;;;;;;;;;25.85;98.36;98514.63;4973105;28;1882;-70
2023/10/27 11:01:18;;;;;;;;;;;;;;;25.85;98.24;98525.97;4955871;28;844;-70
2023/10/27 11:03:49;;;;;;;;;;;;;;;25.93;98.00;98520.47;4973275;28;824;-70
2023/10/27 11:06:18;;;;;;;;;;;;;;;25.85;97.53;98521.06;4972878;28;965;-70
2023/10/27 11:08:46;;;;;;;;;;;;;;;25.60;98.84;98522.50;4955570;28;1242;-70
2023/10/27 11:11:16;;;;;;;;;;;;;;;25.22;100.00;98520.47;4972899;28;982;-70
2023/10/27 11:13:44;;;;;;;;;;;;;;;24.98;100.00;98515.59;4972920;28;843;-70
2023/10/27 11:16:23;;;;;;;;;;;;;;;24.88;100.00;98517.28;4973048;28;822;-69
2023/10/27 11:18:52;;;;;;;;;;;;;;;24.76;100.00;98501.75;4972831;28;1941;-68
2023/10/27 11:21:20;;;;;;;;;;;;;;;24.85;100.00;98495.75;4955283;28;907;-70
2023/10/27 11:23:47;;;;;;;;;;;;;;;25.12;100.00;98490.25;4972653;28;1278;-70
2023/10/27 11:26:14;;;;;;;;;;;;;;;25.80;100.00;98493.63;4972919;28;803;-71
2023/10/27 11:28:42;;;;;;;;;;;;;;;26.61;97.25;98481.13;4972806;28;838;-72
2023/10/27 11:31:13;;;;;;;;;;;;;;;27.11;94.62;98469.28;4972972;28;799;-72
2023/10/27 11:33:58;;;;;;;;;;;;;;;27.10;93.14;98477.03;4972701;28;854;-71
2023/10/27 11:36:25;;;;;;;;;;;;;;;26.70;94.14;98485.59;4972655;28;853;-71
2023/10/27 11:38:52;;;;;;;;;;;;;;;26.62;95.45;98481.91;4972650;28;1906;-72
2023/10/27 11:41:19;;;;;;;;;;;;;;;26.49;95.19;98468.47;4972840;28;842;-73
2023/10/27 11:43:46;;;;;;;;;;;;;;;26.21;96.00;98472.59;4972723;28;863;-73
2023/10/27 11:46:12;;;;;;;;;;;;;;;26.18;96.51;98468.03;4972836;28;831;-72
2023/10/27 11:48:39;;;;;;;;;;;;;;;26.45;95.67;98473.69;4972791;28;862;-72
2023/10/27 11:51:06;;;;;;;;;;;;;;;26.48;94.56;98464.13;4975035;28;834;-72
2023/10/27 11:53:36;;;;;;;;;;;;;;;26.49;94.35;98463.56;4976134;28;850;-71
2023/10/27 11:56:05;;;;;;;;;;;;;;;26.43;94.10;98453.66;4974868;28;1189;-71
2023/10/27 11:58:32;;;;;;;;;;;;;;;26.40;94.01;98471.75;4975920;28;1906;-71
2023/10/27 12:00:59;;;;;;;;;;;;;;;26.42;94.03;98464.22;4976123;28;803;-72
2023/10/27 12:03:26;;;;;;;;;;;;;;;26.54;93.40;98461.16;4975899;28;862;-70
2023/10/27 12:05:52;;;;;;;;;;;;;;;26.64;93.02;98465.09;4975834;28;848;-71
2023/10/27 12:08:19;;;;;;;;;;;;;;;26.51;92.64;98460.19;4975904;28;811;-70
2023/10/27 12:10:48;;;;;;;;;;;;;;;26.42;92.36;98457.81;4975789;28;858;-71
2023/10/27 12:13:15;;;;;;;;;;;;;;;26.27;92.45;98459.09;4975752;28;863;-71
2023/10/27 12:15:42;;;;;;;;;;;;;;;26.00;93.14;98457.56;4975955;28;847;-70
2023/10/27 12:18:08;;;;;;;;;;;;;;;26.05;93.17;98460.28;4975413;28;1977;-71
2023/10/27 12:20:38;;;;;;;;;;;;;;;25.93;93.63;98450.47;4975646;28;828;-71
2023/10/27 12:23:08;;;;;;;;;;;;;;;25.89;93.86;98454.94;4975270;28;1379;-71
2023/10/27 12:25:35;;;;;;;;;;;;;;;26.12;93.57;98452.44;4975496;28;859;-71
2023/10/27 12:28:07;;;;;;;;;;;;;;;26.18;92.30;98450.25;4975477;28;851;-69
2023/10/27 12:30:36;;;;;;;;;;;;;;;26.12;92.36;98450.38;4975396;28;871;-71
2023/10/27 12:33:09;;;;;;;;;;;;;;;25.95;92.61;98447.09;4975709;28;840;-71
2023/10/27 12:35:37;;;;;;;;;;;;;;;25.74;92.50;98436.34;4975359;28;844;-70
2023/10/27 12:38:04;;;;;;;;;;;;;;;25.64;93.00;98438.06;4975321;28;1973;-70
2023/10/27 12:40:34;;;;;;;;;;;;;;;25.52;93.11;98431.06;4975226;28;831;-70
2023/10/27 12:43:01;;;;;;;;;;;;;;;25.44;93.20;98433.78;4975403;28;831;-70
2023/10/27 12:45:27;;;;;;;;;;;;;;;25.42;93.60;98442.78;4975138;28;799;-71
2023/10/27 12:47:55;;;;;;;;;;;;;;;25.40;93.36;98439.72;4975056;28;851;-70
2023/10/27 12:50:25;;;;;;;;;;;;;;;25.45;93.58;98435.28;4975057;28;927;-70
2023/10/27 12:52:52;;;;;;;;;;;;;;;25.52;93.39;98443.16;4973724;28;1261;-70
2023/10/27 12:55:18;;;;;;;;;;;;;;;25.66;92.87;98441.13;4974964;28;851;-70
2023/10/27 12:57:45;;;;;;;;;;;;;;;25.74;92.72;98442.00;4975019;28;1886;-70
2023/10/27 13:00:20;;;;;;;;;;;;;;;25.71;92.53;98445.94;4974890;28;854;-69
2023/10/27 13:02:47;;;;;;;;;;;;;;;25.73;93.04;98445.38;4973933;28;871;-71
2023/10/27 13:05:14;;;;;;;;;;;;;;;25.66;92.28;98443.94;4974874;28;851;-70
2023/10/27 13:07:40;;;;;;;;;;;;;;;25.54;90.78;98434.13;4974676;28;921;-69
2023/10/27 13:10:08;;;;;;;;;;;;;;;25.41;82.13;98432.00;4974650;28;837;-69
2023/10/27 13:12:37;;;;;;;;;;;;;;;25.39;81.62;98426.13;4974606;28;795;-69
2023/10/27 13:15:04;;;;;;;;;;;;;;;25.33;80.80;98431.88;4973261;28;840;-69
2023/10/27 13:17:31;;;;;;;;;;;;;;;25.31;80.35;98422.41;4974487;28;981;-70
2023/10/27 13:19:58;;;;;;;;;;;;;;;25.23;76.61;98413.78;4974620;28;847;-70
2023/10/27 13:22:26;;;;;;;;;;;;;;;25.17;75.80;98418.72;4974404;28;1432;-69
2023/10/27 13:24:55;;;;;;;;;;;;;;;25.13;75.87;98419.03;4974567;28;832;-71
2023/10/27 13:27:22;;;;;;;;;;;;;;;25.05;75.97;98416.09;4957002;28;1214;-69
2023/10/27 13:29:49;;;;;;;;;;;;;;;24.99;75.71;98418.22;4974244;28;811;-70
2023/10/27 13:32:15;;;;;;;;;;;;;;;24.90;72.62;98417.84;4974275;28;886;-69
2023/10/27 13:34:43;;;;;;;;;;;;;;;24.85;71.53;98419.44;4974105;28;807;-69
2023/10/27 13:37:10;;;;;;;;;;;;;;;24.81;72.05;98418.97;4974099;28;953;-69